Time;durP1;ratioP1;P1;durP2;ratioP2;P2;SDS_P1;SDS_P2;PMS_P1;PMS_P2;Temp;Humidity;BMP_temperature;BMP_pressure;BME280_temperature;BME280_humidity;BME280_pressure;Samples;Min_cycle;Max_cycle;Signal;HPM_P1;HPM_P2
2022/11/07 00:01:32;;;;;;;;;;;;;;;-144.99;90.18;52452.16;5069465;28;20505;-64
2022/11/07 00:03:59;;;;;;;;;;;;;;;-144.99;89.61;52450.13;5069838;28;20424;-64
2022/11/07 00:06:25;;;;;;;;;;;;;;;-144.99;89.85;52448.09;5070014;28;19950;-63
2022/11/07 00:08:54;;;;;;;;;;;;;;;-144.99;89.49;52444.03;5066399;28;20089;-64
2022/11/07 00:11:20;;;;;;;;;;;;;;;-144.99;89.31;52456.25;5064689;28;19957;-64
2022/11/07 00:13:48;;;;;;;;;;;;;;;-144.99;89.22;52452.16;5069343;28;20053;-65
2022/11/07 00:16:15;;;;;;;;;;;;;;;-144.99;88.58;52444.03;5069637;28;19947;-62
2022/11/07 00:18:42;;;;;;;;;;;;;;;-144.99;88.37;52476.63;5067765;28;20004;-63
2022/11/07 00:21:09;;;;;;;;;;;;;;;-144.99;88.84;52437.91;5064687;28;20026;-68
2022/11/07 00:23:36;;;;;;;;;;;;;;;-144.99;89.11;52448.09;5067850;28;19949;-69
2022/11/07 00:26:03;;;;;;;;;;;;;;;-144.99;89.07;52417.53;5063974;28;20357;-70
2022/11/07 00:28:33;;;;;;;;;;;;;;;-144.99;89.27;52407.31;5065221;28;19924;-68
2022/11/07 00:31:00;;;;;;;;;;;;;;;-144.99;88.85;52450.13;5067106;28;20051;-68
2022/11/07 00:33:27;;;;;;;;;;;;;;;-144.99;88.58;52460.31;5053912;28;19943;-68
2022/11/07 00:35:53;;;;;;;;;;;;;;;-144.99;88.07;52468.47;5059612;28;19959;-69
2022/11/07 00:38:20;;;;;;;;;;;;;;;-144.99;88.27;52464.41;5067980;28;20005;-68
2022/11/07 00:40:53;;;;;;;;;;;;;;;-144.99;88.43;52431.78;5066751;28;19955;-69
2022/11/07 00:43:19;;;;;;;;;;;;;;;-144.99;88.39;52425.66;5064138;28;20026;-67
2022/11/07 00:45:46;;;;;;;;;;;;;;;-144.99;88.55;52415.47;5067804;28;20484;-68
2022/11/07 00:48:14;;;;;;;;;;;;;;;-144.99;88.25;52448.09;5067133;28;20031;-67
2022/11/07 00:50:40;;;;;;;;;;;;;;;-144.99;88.21;52431.78;5067167;28;20022;-68
2022/11/07 00:53:06;;;;;;;;;;;;;;;-144.99;88.46;52464.41;5060670;28;19943;-68
2022/11/07 00:55:33;;;;;;;;;;;;;;;-144.99;88.82;52433.81;5064119;28;19965;-68
2022/11/07 00:58:00;;;;;;;;;;;;;;;-144.99;89.09;52444.03;5064103;28;20319;-68
2022/11/07 01:00:26;;;;;;;;;;;;;;;-144.99;89.39;52458.28;5063543;28;19935;-68
2022/11/07 01:05:34;;;;;;;;;;;;;;;-144.99;89.87;52423.63;5066522;28;19970;-68
2022/11/07 01:08:01;;;;;;;;;;;;;;;-144.99;90.46;52437.91;5067677;28;19948;-68
2022/11/07 01:10:27;;;;;;;;;;;;;;;-144.99;90.28;52460.31;5059290;28;20066;-69
2022/11/07 01:12:53;;;;;;;;;;;;;;;-144.99;90.32;52399.19;5056673;28;19948;-73
2022/11/07 01:15:20;;;;;;;;;;;;;;;-144.99;90.09;52423.63;5064438;28;19999;-72
2022/11/07 01:17:46;;;;;;;;;;;;;;;-144.99;89.98;52433.81;5081463;28;19940;-72
2022/11/07 01:20:13;;;;;;;;;;;;;;;-144.99;89.48;52478.66;5084739;28;19950;-72
2022/11/07 01:22:41;;;;;;;;;;;;;;;-144.99;89.77;52439.94;5076742;28;19940;-77
2022/11/07 01:25:08;;;;;;;;;;;;;;;-144.99;90.53;52484.78;5082886;28;19960;-77
2022/11/07 01:27:34;;;;;;;;;;;;;;;-144.99;90.36;52456.25;5079373;28;19946;-78
2022/11/07 01:30:01;;;;;;;;;;;;;;;-144.99;90.14;52468.47;5082350;28;19970;-76
2022/11/07 01:32:27;;;;;;;;;;;;;;;-144.99;89.70;52454.22;5081078;28;19993;-73
2022/11/07 01:34:54;;;;;;;;;;;;;;;-144.99;89.83;52423.63;5078632;28;20018;-71
2022/11/07 01:37:20;;;;;;;;;;;;;;;-144.99;89.83;52488.84;5083860;28;19936;-74
2022/11/07 01:39:48;;;;;;;;;;;;;;;-144.99;90.42;52439.94;5080170;28;19955;-73
2022/11/07 01:42:14;;;;;;;;;;;;;;;-144.99;90.28;52419.56;5074128;28;19951;-71
2022/11/07 01:44:51;;;;;;;;;;;;;;;-144.99;90.16;52427.72;5067308;28;20039;-71
2022/11/07 01:47:18;;;;;;;;;;;;;;;-144.99;89.92;52427.72;5061478;28;19951;-72
2022/11/07 01:49:45;;;;;;;;;;;;;;;-144.99;90.72;52435.88;5058540;28;19984;-71
2022/11/07 01:52:12;;;;;;;;;;;;;;;-144.99;90.48;52448.09;5064857;28;19942;-71
2022/11/07 01:54:41;;;;;;;;;;;;;;;-144.99;90.59;52448.09;5060730;28;20025;-67
2022/11/07 01:57:11;;;;;;;;;;;;;;;-144.99;91.18;52468.47;5058055;28;19944;-68
2022/11/07 01:59:38;;;;;;;;;;;;;;;-144.99;91.17;52399.19;5064955;28;19942;-68
2022/11/07 02:02:04;;;;;;;;;;;;;;;-144.99;91.19;52439.94;5065666;28;20330;-67
2022/11/07 02:04:31;;;;;;;;;;;;;;;-144.99;90.05;52435.88;5065312;28;19991;-68
2022/11/07 02:07:00;;;;;;;;;;;;;;;-144.99;90.74;52435.88;5065678;28;20450;-67
2022/11/07 02:09:27;;;;;;;;;;;;;;;-144.99;91.30;52444.03;5065879;28;20063;-68
2022/11/07 02:11:53;;;;;;;;;;;;;;;-144.99;91.40;52468.47;5065534;28;20000;-67
2022/11/07 02:14:21;;;;;;;;;;;;;;;-144.99;91.18;52431.78;5056781;28;20452;-66
2022/11/07 02:16:48;;;;;;;;;;;;;;;-144.99;91.49;52403.25;5058589;28;20050;-66
2022/11/07 02:19:18;;;;;;;;;;;;;;;-144.99;91.70;52439.94;5062185;28;20070;-67
2022/11/07 02:21:48;;;;;;;;;;;;;;;-144.99;91.82;52433.81;5066826;28;19970;-67
2022/11/07 02:24:22;;;;;;;;;;;;;;;-144.99;91.46;52419.56;5061980;28;20050;-67
2022/11/07 02:26:49;;;;;;;;;;;;;;;-144.99;91.92;52439.94;5064787;28;19940;-67
2022/11/07 02:29:15;;;;;;;;;;;;;;;-144.99;91.54;52452.16;5061412;28;20419;-67
2022/11/07 02:31:42;;;;;;;;;;;;;;;-144.99;91.79;52435.88;5066749;28;20330;-67
2022/11/07 02:34:08;;;;;;;;;;;;;;;-144.99;91.58;52435.88;5063017;28;20349;-67
2022/11/07 02:36:37;;;;;;;;;;;;;;;-144.99;92.05;52444.03;5065501;28;20194;-68
2022/11/07 02:39:03;;;;;;;;;;;;;;;-144.99;91.88;52452.16;5065111;28;20009;-67
2022/11/07 02:41:33;;;;;;;;;;;;;;;-144.99;92.01;52423.63;5066710;28;19982;-68
2022/11/07 02:44:03;;;;;;;;;;;;;;;-144.99;92.66;52431.78;5066451;28;20013;-71
2022/11/07 02:46:30;;;;;;;;;;;;;;;-144.99;92.06;52417.53;5055077;28;19953;-70
2022/11/07 02:48:58;;;;;;;;;;;;;;;-144.99;92.34;52460.31;5058018;28;19962;-69
2022/11/07 02:51:25;;;;;;;;;;;;;;;-144.99;92.25;52521.47;5067068;28;20054;-71
2022/11/07 02:53:51;;;;;;;;;;;;;;;-144.99;91.93;52425.66;5062540;28;19932;-71
2022/11/07 02:56:18;;;;;;;;;;;;;;;-144.99;92.61;52458.28;5062375;28;20034;-68
2022/11/07 02:58:46;;;;;;;;;;;;;;;-144.99;92.79;52454.22;5062564;28;19943;-68
2022/11/07 03:01:13;;;;;;;;;;;;;;;-144.99;93.01;52435.88;5066964;28;20047;-70
2022/11/07 03:03:41;;;;;;;;;;;;;;;-144.99;92.00;52431.78;5065893;28;19942;-70
2022/11/07 03:06:08;;;;;;;;;;;;;;;-144.99;92.79;52415.47;5060187;28;19960;-69
2022/11/07 03:08:34;;;;;;;;;;;;;;;-144.99;92.50;52386.94;5049871;28;20032;-71
2022/11/07 03:11:01;;;;;;;;;;;;;;;-144.99;92.38;52456.25;5063395;28;20019;-71
2022/11/07 03:13:27;;;;;;;;;;;;;;;-144.99;92.84;52435.88;5058847;28;19950;-71
2022/11/07 03:15:55;;;;;;;;;;;;;;;-144.99;92.98;52476.63;5053947;28;19970;-71
2022/11/07 03:18:22;;;;;;;;;;;;;;;-144.99;93.05;52433.81;5058949;28;19946;-70
2022/11/07 03:20:48;;;;;;;;;;;;;;;-144.99;93.31;52425.66;5056640;28;19956;-71
2022/11/07 03:23:15;;;;;;;;;;;;;;;-144.99;93.12;52464.41;5055754;28;19949;-72
2022/11/07 03:25:41;;;;;;;;;;;;;;;-144.99;93.21;52450.13;5059600;28;20003;-72
2022/11/07 03:28:08;;;;;;;;;;;;;;;-144.99;92.83;52403.25;5066887;28;19969;-71
2022/11/07 03:30:34;;;;;;;;;;;;;;;-144.99;92.97;52468.47;5068046;28;19961;-70
2022/11/07 03:33:02;;;;;;;;;;;;;;;-144.99;93.76;52423.63;5071534;28;19947;-70
2022/11/07 03:35:28;;;;;;;;;;;;;;;-144.99;93.68;52399.19;5067673;28;19946;-69
2022/11/07 03:37:55;;;;;;;;;;;;;;;-144.99;93.52;52403.25;5066476;28;19965;-73
2022/11/07 03:40:21;;;;;;;;;;;;;;;-144.99;93.69;52456.25;5067305;28;20047;-74
2022/11/07 03:42:48;;;;;;;;;;;;;;;-144.99;92.87;52435.88;5065601;28;20019;-74
2022/11/07 03:45:15;;;;;;;;;;;;;;;-144.99;93.80;52439.94;5063412;28;19924;-76
2022/11/07 03:47:42;;;;;;;;;;;;;;;-144.99;93.73;52382.88;5073866;28;20033;-73
2022/11/07 03:50:11;;;;;;;;;;;;;;;-144.99;93.40;52419.56;5067166;28;20011;-75
2022/11/07 03:52:38;;;;;;;;;;;;;;;-144.99;93.78;52427.72;5067053;28;19996;-73
2022/11/07 03:55:04;;;;;;;;;;;;;;;-144.99;94.04;52431.78;5075049;28;19933;-73
2022/11/07 03:57:31;;;;;;;;;;;;;;;-144.99;94.15;52415.47;5083561;28;19941;-73
2022/11/07 03:59:57;;;;;;;;;;;;;;;-144.99;94.00;52444.03;5082359;28;19971;-72
2022/11/07 04:02:24;;;;;;;;;;;;;;;-144.99;94.64;52423.63;5081889;28;19958;-71
2022/11/07 04:04:50;;;;;;;;;;;;;;;-144.99;94.93;52411.41;5079414;28;20031;-72
2022/11/07 04:07:18;;;;;;;;;;;;;;;-144.99;95.13;52480.72;5076497;28;20044;-74
2022/11/07 04:09:44;;;;;;;;;;;;;;;-144.99;94.79;52444.03;5067388;28;19935;-72
2022/11/07 04:17:39;;;;;;;;;;;;;;;-144.99;95.70;52456.25;5070324;28;19943;-73
2022/11/07 04:20:06;;;;;;;;;;;;;;;-144.99;95.21;52419.56;5068530;28;20293;-72
2022/11/07 04:22:34;;;;;;;;;;;;;;;-144.99;95.46;52464.41;5082547;28;20015;-74
2022/11/07 04:25:00;;;;;;;;;;;;;;;-144.99;94.83;52419.56;5084690;28;19955;-74
2022/11/07 04:27:41;;;;;;;;;;;;;;;-144.99;94.89;52421.59;5071853;28;19986;-65
2022/11/07 04:30:23;;;;;;;;;;;;;;;-144.99;94.72;52425.66;5063516;28;19929;-66
2022/11/07 04:32:51;;;;;;;;;;;;;;;-144.99;95.51;52425.66;5069860;28;20474;-67
2022/11/07 04:35:17;;;;;;;;;;;;;;;-144.99;94.97;52439.94;5070922;28;20012;-67
2022/11/07 04:37:45;;;;;;;;;;;;;;;-144.99;94.92;52427.72;5066251;28;20055;-68
2022/11/07 04:40:12;;;;;;;;;;;;;;;-144.99;94.90;52421.59;5067190;28;20042;-68
2022/11/07 04:42:39;;;;;;;;;;;;;;;-144.99;95.10;52419.56;5059270;28;19952;-68
2022/11/07 04:45:06;;;;;;;;;;;;;;;-144.99;95.08;52427.72;5069360;28;20419;-69
2022/11/07 04:47:32;;;;;;;;;;;;;;;-144.99;94.71;52431.78;5097115;22;20014;-71
2022/11/07 04:49:59;;;;;;;;;;;;;;;-144.99;94.93;52395.09;5109647;28;19924;-71
2022/11/07 04:52:25;;;;;;;;;;;;;;;-144.99;94.39;52399.19;5065087;28;19940;-72
2022/11/07 04:54:53;;;;;;;;;;;;;;;-144.99;94.38;52395.09;5066202;28;20043;-73
2022/11/07 04:57:19;;;;;;;;;;;;;;;-144.99;95.30;52399.19;5060887;28;20059;-74
2022/11/07 04:59:46;;;;;;;;;;;;;;;-144.99;95.32;52423.63;5062816;28;20052;-74
2022/11/07 05:02:14;;;;;;;;;;;;;;;-144.99;95.09;52427.72;5071022;28;19943;-72
2022/11/07 05:04:41;;;;;;;;;;;;;;;-144.99;95.25;52433.81;5066894;28;19937;-72
2022/11/07 05:07:08;;;;;;;;;;;;;;;-144.99;94.95;52407.31;5071500;28;20057;-73
2022/11/07 05:09:35;;;;;;;;;;;;;;;-144.99;95.28;52395.09;5068396;28;19938;-71
2022/11/07 05:12:02;;;;;;;;;;;;;;;-144.99;95.89;52458.28;5067580;28;19957;-71
2022/11/07 05:14:29;;;;;;;;;;;;;;;-144.99;96.26;52429.75;5071741;28;19977;-67
2022/11/07 05:16:56;;;;;;;;;;;;;;;-144.99;96.55;52417.53;5068244;28;20049;-67
2022/11/07 05:19:23;;;;;;;;;;;;;;;-144.99;96.50;52439.94;5057624;28;19936;-70
2022/11/07 05:23:10;;;;;;;;;;;;;;;-144.99;96.54;52444.03;5062902;28;19997;-70
2022/11/07 05:24:36;;;;;;;;;;;;;;;-144.99;96.37;52419.56;5069646;28;19939;-70
2022/11/07 05:27:04;;;;;;;;;;;;;;;-144.99;96.01;52407.31;5062882;28;20449;-70
2022/11/07 05:29:31;;;;;;;;;;;;;;;-144.99;95.90;52448.09;5063437;28;20394;-70
2022/11/07 05:31:57;;;;;;;;;;;;;;;-144.99;96.24;52435.88;5065275;28;20061;-70
2022/11/07 05:34:24;;;;;;;;;;;;;;;-144.99;95.93;52411.41;5069702;28;19947;-70
2022/11/07 05:36:50;;;;;;;;;;;;;;;-144.99;96.02;52456.25;5067782;28;19970;-71
2022/11/07 05:39:16;;;;;;;;;;;;;;;-144.99;97.22;52415.47;5065403;28;19928;-70
2022/11/07 05:41:43;;;;;;;;;;;;;;;-144.99;96.70;52409.38;5063023;28;19989;-70
2022/11/07 05:44:11;;;;;;;;;;;;;;;-144.99;97.33;52388.97;5069198;28;20040;-70
2022/11/07 05:46:38;;;;;;;;;;;;;;;-144.99;97.36;52437.91;5068851;28;20036;-71
2022/11/07 05:49:04;;;;;;;;;;;;;;;-144.99;97.39;52423.63;5066049;28;19943;-67
2022/11/07 05:51:31;;;;;;;;;;;;;;;-144.99;97.76;52474.59;5058800;28;20387;-71
2022/11/07 05:53:57;;;;;;;;;;;;;;;-144.99;97.62;52462.34;5063468;28;19945;-66
2022/11/07 05:56:23;;;;;;;;;;;;;;;-144.99;97.22;52444.03;5059350;28;19941;-67
2022/11/07 05:58:50;;;;;;;;;;;;;;;-144.99;97.46;52456.25;5065879;28;19935;-65
2022/11/07 06:01:18;;;;;;;;;;;;;;;-144.99;97.03;52423.63;5065258;28;19958;-66
2022/11/07 06:03:44;;;;;;;;;;;;;;;-144.99;97.60;52439.94;5061393;28;20330;-67
2022/11/07 06:06:10;;;;;;;;;;;;;;;-144.99;97.61;52435.88;5068603;28;19961;-78
2022/11/07 06:08:37;;;;;;;;;;;;;;;-144.99;97.71;52431.78;4719915;28;9999890;-80
2022/11/07 06:11:04;;;;;;;;;;;;;;;-144.99;98.23;52382.88;5057555;28;19962;-79
2022/11/07 06:13:30;;;;;;;;;;;;;;;-144.99;98.39;52411.41;5050483;28;19946;-78
2022/11/07 06:15:57;;;;;;;;;;;;;;;-144.99;98.30;52452.16;5049086;28;20490;-79
2022/11/07 06:18:25;;;;;;;;;;;;;;;-144.99;98.82;52425.66;5077026;28;19973;-81
2022/11/07 06:20:51;;;;;;;;;;;;;;;-144.99;99.28;52427.72;5083435;28;19982;-80
2022/11/07 06:23:18;;;;;;;;;;;;;;;-144.99;97.89;52431.78;5060023;28;20374;-78
2022/11/07 06:25:45;;;;;;;;;;;;;;;-144.99;98.73;52431.78;5057805;28;20062;-77
2022/11/07 06:28:12;;;;;;;;;;;;;;;-144.99;97.78;52452.16;5068053;28;19951;-79
2022/11/07 06:30:39;;;;;;;;;;;;;;;-144.99;98.72;52456.25;5068394;28;19981;-78
2022/11/07 06:33:06;;;;;;;;;;;;;;;-144.99;99.51;52421.59;5050803;28;20418;-79
2022/11/07 06:35:34;;;;;;;;;;;;;;;-144.99;100.00;52419.56;5052236;28;19925;-78
2022/11/07 06:38:02;;;;;;;;;;;;;;;-144.99;100.00;52470.50;5066853;28;19944;-76
2022/11/07 06:40:28;;;;;;;;;;;;;;;-144.99;99.66;52421.59;5061818;28;19958;-78
2022/11/07 06:42:55;;;;;;;;;;;;;;;-144.99;99.98;52435.88;5064833;28;19969;-78
2022/11/07 06:45:22;;;;;;;;;;;;;;;-144.99;99.78;52419.56;5067921;28;19949;-78
2022/11/07 06:47:48;;;;;;;;;;;;;;;-144.99;100.00;52464.41;5067657;28;20496;-78
2022/11/07 06:50:15;;;;;;;;;;;;;;;-144.99;100.00;52458.28;5065425;28;20440;-79
2022/11/07 06:52:42;;;;;;;;;;;;;;;-144.99;100.00;52407.31;5048911;28;20073;-79
2022/11/07 06:55:09;;;;;;;;;;;;;;;-144.99;100.00;52456.25;5078087;28;19944;-78
2022/11/07 06:57:36;;;;;;;;;;;;;;;-144.99;100.00;52472.56;5065246;28;20354;-78
2022/11/07 07:00:04;;;;;;;;;;;;;;;-144.99;100.00;52468.47;5061574;28;19975;-77
2022/11/07 07:02:30;;;;;;;;;;;;;;;-144.99;100.00;52448.09;5072692;28;19963;-79
2022/11/07 07:04:58;;;;;;;;;;;;;;;-144.99;100.00;52427.72;5071897;28;19948;-78
2022/11/07 07:07:25;;;;;;;;;;;;;;;-144.99;100.00;52403.25;5073022;28;20369;-77
2022/11/07 07:09:53;;;;;;;;;;;;;;;-144.99;100.00;52427.72;5063424;28;20296;-81
2022/11/07 07:12:19;;;;;;;;;;;;;;;-144.99;100.00;52456.25;5071737;28;19939;-79
2022/11/07 07:14:46;;;;;;;;;;;;;;;-144.99;100.00;52427.72;5068134;28;19996;-77
2022/11/07 07:17:12;;;;;;;;;;;;;;;-144.99;100.00;52425.66;5073785;28;19963;-78
2022/11/07 07:19:39;;;;;;;;;;;;;;;-144.99;100.00;52407.31;5067835;28;19960;-77
2022/11/07 07:22:05;;;;;;;;;;;;;;;-144.99;100.00;52435.88;5068452;28;20008;-77
2022/11/07 07:24:32;;;;;;;;;;;;;;;-144.99;100.00;52415.47;5060547;28;20032;-80
2022/11/07 07:27:00;;;;;;;;;;;;;;;-144.99;99.41;52401.22;5067354;28;20028;-78
2022/11/07 07:29:26;;;;;;;;;;;;;;;-144.99;100.00;52427.72;5066125;28;19961;-79
2022/11/07 07:31:53;;;;;;;;;;;;;;;-144.99;99.18;52441.97;5071197;28;20401;-79
2022/11/07 07:34:19;;;;;;;;;;;;;;;-144.99;98.46;52407.31;5050284;28;20023;-78
2022/11/07 07:36:46;;;;;;;;;;;;;;;-144.99;97.69;52417.53;5049900;28;19946;-77
2022/11/07 07:39:12;;;;;;;;;;;;;;;-144.99;97.06;52391.03;5069469;28;20032;-77
2022/11/07 07:41:39;;;;;;;;;;;;;;;-144.99;96.42;52386.94;5066173;28;20066;-78
2022/11/07 07:44:07;;;;;;;;;;;;;;;-144.99;95.70;52401.22;5062378;28;20352;-80
2022/11/07 07:46:33;;;;;;;;;;;;;;;-144.99;93.78;52407.31;5064236;28;20360;-78
2022/11/07 07:49:00;;;;;;;;;;;;;;;-144.99;93.61;52415.47;5071523;28;19968;-78
2022/11/07 07:51:26;;;;;;;;;;;;;;;-144.99;94.12;52366.56;5071682;28;20016;-78
2022/11/07 07:53:53;;;;;;;;;;;;;;;-144.99;94.01;52427.72;5071240;28;19960;-79
2022/11/07 07:56:20;;;;;;;;;;;;;;;-144.99;94.51;52444.03;5071125;28;19954;-79
2022/11/07 07:58:46;;;;;;;;;;;;;;;-144.99;94.44;52409.38;5071169;28;19943;-78
2022/11/07 08:01:14;;;;;;;;;;;;;;;-144.99;94.78;52374.72;5068145;28;20007;-77
2022/11/07 08:03:41;;;;;;;;;;;;;;;-144.99;94.65;52444.03;5066384;28;19956;-76
2022/11/07 08:06:07;;;;;;;;;;;;;;;-144.99;93.84;52399.19;5068557;28;19962;-77
2022/11/07 08:08:34;;;;;;;;;;;;;;;-144.99;93.67;52399.19;5068879;28;19949;-78
2022/11/07 08:11:01;;;;;;;;;;;;;;;-144.99;93.78;52431.78;5067189;28;20041;-80
2022/11/07 08:13:27;;;;;;;;;;;;;;;-144.99;93.71;52391.03;5064285;28;20704;-77
2022/11/07 08:15:54;;;;;;;;;;;;;;;-144.99;92.74;52423.63;5061003;28;19984;-77
2022/11/07 08:18:22;;;;;;;;;;;;;;;-144.99;92.61;52421.59;5066722;28;20039;-78
2022/11/07 08:20:49;;;;;;;;;;;;;;;-144.99;91.84;52444.03;5061213;28;19962;-76
2022/11/07 08:23:16;;;;;;;;;;;;;;;-144.99;91.51;52403.25;5060595;28;19957;-76
2022/11/07 08:25:43;;;;;;;;;;;;;;;-144.99;90.97;52395.09;5059344;28;19964;-77
2022/11/07 08:28:09;;;;;;;;;;;;;;;-144.99;90.76;52399.19;5064019;28;19958;-77
2022/11/07 08:30:36;;;;;;;;;;;;;;;-144.99;91.04;52411.41;5057264;28;20273;-77
2022/11/07 08:33:03;;;;;;;;;;;;;;;-144.99;90.39;52399.19;5066039;28;20012;-79
2022/11/07 08:35:31;;;;;;;;;;;;;;;-144.99;89.44;52397.13;5064509;28;20112;-77
2022/11/07 08:37:57;;;;;;;;;;;;;;;-144.99;88.86;52415.47;5052295;28;19976;-77
2022/11/07 08:40:24;;;;;;;;;;;;;;;-144.99;88.72;52411.41;5063521;28;20449;-79
2022/11/07 08:42:50;;;;;;;;;;;;;;;-144.99;88.99;52415.47;5064575;28;19958;-79
2022/11/07 08:45:17;;;;;;;;;;;;;;;-144.99;89.11;52419.56;5056421;28;20034;-76
2022/11/07 08:47:43;;;;;;;;;;;;;;;-144.99;88.46;52423.63;5056985;28;19993;-77
2022/11/07 08:50:10;;;;;;;;;;;;;;;-144.99;88.25;52364.53;5064426;28;19959;-77
2022/11/07 08:52:37;;;;;;;;;;;;;;;-144.99;87.02;52403.25;5055785;28;19962;-76
2022/11/07 08:55:04;;;;;;;;;;;;;;;-144.99;85.21;52362.50;5059495;28;20000;-77
2022/11/07 08:57:31;;;;;;;;;;;;;;;-144.99;83.78;52413.44;5051000;28;20281;-76
2022/11/07 08:59:57;;;;;;;;;;;;;;;-144.99;84.52;52362.50;5056318;28;19934;-79
2022/11/07 09:02:24;;;;;;;;;;;;;;;-144.99;85.66;52423.63;5063748;28;19939;-78
2022/11/07 09:04:50;;;;;;;;;;;;;;;-144.99;86.98;52376.75;5055256;28;19947;-78
2022/11/07 09:07:16;;;;;;;;;;;;;;;-144.99;86.55;52423.63;5061329;28;20057;-78
2022/11/07 09:09:44;;;;;;;;;;;;;;;-144.99;87.11;52358.41;5061217;28;20489;-77
2022/11/07 09:12:11;;;;;;;;;;;;;;;-144.99;86.33;52407.31;5051515;28;20051;-78
2022/11/07 09:14:37;;;;;;;;;;;;;;;-144.99;86.19;52370.63;5062391;28;19989;-77
2022/11/07 09:17:04;;;;;;;;;;;;;;;-144.99;85.81;52395.09;5060886;28;19946;-79
2022/11/07 09:19:30;;;;;;;;;;;;;;;-144.99;86.01;52354.34;5059431;28;20006;-80
2022/11/07 09:21:57;;;;;;;;;;;;;;;-144.99;86.04;52380.84;5058284;28;20070;-79
2022/11/07 09:24:23;;;;;;;;;;;;;;;-144.99;86.75;52382.88;5060387;28;19942;-78
2022/11/07 09:26:51;;;;;;;;;;;;;;;-144.99;87.08;52431.78;5049624;28;19973;-78
2022/11/07 09:29:18;;;;;;;;;;;;;;;-144.99;87.70;52411.41;5061929;28;19982;-81
2022/11/07 09:31:44;;;;;;;;;;;;;;;-144.99;87.25;52354.34;5052509;28;19999;-80
2022/11/07 09:34:11;;;;;;;;;;;;;;;-144.99;86.43;52393.06;5049321;28;19962;-79
2022/11/07 09:36:37;;;;;;;;;;;;;;;-144.99;85.49;52378.78;5065434;28;20022;-80
2022/11/07 09:39:04;;;;;;;;;;;;;;;-144.99;86.89;52366.56;5075838;28;19978;-78
2022/11/07 09:41:35;;;;;;;;;;;;;;;-144.99;87.00;52395.09;5071652;28;20289;-81
2022/11/07 09:44:09;;;;;;;;;;;;;;;-144.99;87.09;52407.31;5076277;28;19966;-81
2022/11/07 09:46:44;;;;;;;;;;;;;;;-144.99;86.07;52395.09;5076357;28;19946;-81
2022/11/07 09:49:15;;;;;;;;;;;;;;;-144.99;86.33;52350.25;5075760;28;20062;-78
2022/11/07 09:51:44;;;;;;;;;;;;;;;-144.99;86.63;52378.78;5057000;28;19959;-77
2022/11/07 09:54:12;;;;;;;;;;;;;;;-144.99;85.05;52391.03;5053672;28;19939;-78
2022/11/07 09:56:40;;;;;;;;;;;;;;;-144.99;84.08;52342.09;5065008;28;19965;-79
2022/11/07 09:59:14;;;;;;;;;;;;;;;-144.99;83.79;52378.78;5062708;28;19985;-79
2022/11/07 10:01:40;;;;;;;;;;;;;;;-144.99;84.79;52403.25;5059104;28;20382;-77
2022/11/07 10:04:09;;;;;;;;;;;;;;;-144.99;85.85;52403.25;5057397;28;20004;-78
2022/11/07 10:06:40;;;;;;;;;;;;;;;-144.99;87.79;52435.88;5068362;28;19996;-78
2022/11/07 10:09:11;;;;;;;;;;;;;;;-144.99;88.20;52399.19;5066494;28;20053;-77
2022/11/07 10:11:40;;;;;;;;;;;;;;;-144.99;88.05;52378.78;5057412;28;19961;-81
2022/11/07 10:14:24;;;;;;;;;;;;;;;-144.99;87.58;52403.25;5055565;28;19943;-78
2022/11/07 10:17:01;;;;;;;;;;;;;;;-144.99;89.53;52403.25;5070187;28;19985;-78
2022/11/07 10:19:49;;;;;;;;;;;;;;;-144.99;89.28;52415.47;5067065;28;20349;-76
2022/11/07 10:22:32;;;;;;;;;;;;;;;-144.99;90.00;52399.19;5045263;28;19966;-78
2022/11/07 10:25:05;;;;;;;;;;;;;;;-144.99;88.42;52380.84;5058426;28;19941;-77
2022/11/07 10:27:31;;;;;;;;;;;;;;;-144.99;84.45;52338.03;5066040;28;19956;-77
2022/11/07 10:29:59;;;;;;;;;;;;;;;-144.99;80.87;52374.72;5051843;28;20039;-80
2022/11/07 10:32:34;;;;;;;;;;;;;;;-144.99;80.74;52360.44;5054798;28;20510;-77
2022/11/07 10:35:06;;;;;;;;;;;;;;;-144.99;81.61;52382.88;5056868;28;20001;-80
2022/11/07 10:37:32;;;;;;;;;;;;;;;-144.99;82.35;52370.63;5060109;28;19938;-77
2022/11/07 10:39:59;;;;;;;;;;;;;;;-144.99;82.32;52366.56;5066134;28;20062;-77
2022/11/07 10:42:27;;;;;;;;;;;;;;;-144.99;82.79;52415.47;5061170;28;20458;-78
2022/11/07 10:44:55;;;;;;;;;;;;;;;-144.99;83.81;52391.03;5066991;28;20069;-79
2022/11/07 10:50:17;;;;;;;;;;;;;;;-144.99;86.83;52419.56;5077662;28;19950;-70
2022/11/07 10:52:51;;;;;;;;;;;;;;;-144.99;87.95;52388.97;5052082;28;19939;-69
2022/11/07 10:55:18;;;;;;;;;;;;;;;-144.99;90.90;52391.03;5061960;28;20032;-70
2022/11/07 10:57:46;;;;;;;;;;;;;;;-144.99;91.35;52403.25;5056490;28;20067;-70
2022/11/07 11:00:21;;;;;;;;;;;;;;;-144.99;93.22;52407.31;5057282;28;19958;-71
2022/11/07 11:02:48;;;;;;;;;;;;;;;-144.99;94.97;52419.56;5052731;28;20002;-69
2022/11/07 11:05:24;;;;;;;;;;;;;;;-144.99;95.35;52395.09;5060266;28;20038;-70
2022/11/07 11:07:50;;;;;;;;;;;;;;;-144.99;96.22;52409.38;5057596;28;19955;-69
2022/11/07 11:10:18;;;;;;;;;;;;;;;-144.99;95.67;52431.78;5062458;28;20436;-71
2022/11/07 11:12:46;;;;;;;;;;;;;;;-144.99;96.71;52395.09;5066018;28;19970;-71
2022/11/07 11:15:13;;;;;;;;;;;;;;;-144.99;95.42;52423.63;5061031;28;19943;-71
2022/11/07 11:17:40;;;;;;;;;;;;;;;-144.99;94.98;52378.78;5063467;28;20008;-70
2022/11/07 11:20:08;;;;;;;;;;;;;;;-144.99;94.99;52374.72;5064916;28;20024;-70
2022/11/07 11:22:41;;;;;;;;;;;;;;;-144.99;93.73;52415.47;5064878;28;19949;-70
2022/11/07 11:25:15;;;;;;;;;;;;;;;-144.99;93.34;52423.63;5054231;28;19990;-70
2022/11/07 11:27:43;;;;;;;;;;;;;;;-144.99;92.70;52407.31;5045886;28;19992;-73
2022/11/07 11:30:12;;;;;;;;;;;;;;;-144.99;93.28;52407.31;5058952;28;20013;-70
2022/11/07 11:32:40;;;;;;;;;;;;;;;-144.99;92.51;52415.47;5063777;28;20028;-70
2022/11/07 11:35:13;;;;;;;;;;;;;;;-144.99;92.60;52380.84;5045737;28;19943;-70
2022/11/07 11:37:43;;;;;;;;;;;;;;;-144.99;91.60;52407.31;5049511;28;19945;-70
2022/11/07 11:40:13;;;;;;;;;;;;;;;-144.99;91.62;52386.94;5056047;28;19932;-73
2022/11/07 11:42:45;;;;;;;;;;;;;;;-144.99;90.65;52391.03;5048155;28;20033;-69
2022/11/07 11:45:15;;;;;;;;;;;;;;;-144.99;91.11;52395.09;5055992;28;20008;-71
2022/11/07 11:47:45;;;;;;;;;;;;;;;-144.99;90.06;52395.09;5059657;28;20004;-71
2022/11/07 11:50:15;;;;;;;;;;;;;;;-144.99;89.61;52407.31;5065989;28;20055;-71
2022/11/07 11:52:44;;;;;;;;;;;;;;;-144.99;89.39;52388.97;5062016;28;19954;-71
2022/11/07 11:55:13;;;;;;;;;;;;;;;-144.99;89.47;52415.47;5067186;28;19938;-70
2022/11/07 11:57:43;;;;;;;;;;;;;;;-144.99;89.38;52403.25;5054505;28;19981;-71
2022/11/07 12:00:13;;;;;;;;;;;;;;;-144.99;89.77;52419.56;5058744;28;20306;-70
2022/11/07 12:02:48;;;;;;;;;;;;;;;-144.99;90.10;52370.63;5055563;28;20083;-71
2022/11/07 12:05:30;;;;;;;;;;;;;;;-144.99;90.38;52421.59;5065283;28;19948;-69
2022/11/07 12:08:06;;;;;;;;;;;;;;;-144.99;90.44;52415.47;5054169;28;20199;-70
2022/11/07 12:10:35;;;;;;;;;;;;;;;-144.99;89.79;52411.41;5061982;28;20022;-70
2022/11/07 12:13:08;;;;;;;;;;;;;;;-144.99;89.95;52435.88;5069841;28;20009;-70
2022/11/07 12:15:41;;;;;;;;;;;;;;;-144.99;90.01;52427.72;5068421;28;19950;-70
2022/11/07 12:18:12;;;;;;;;;;;;;;;-144.99;90.02;52411.41;5066183;28;20024;-70
2022/11/07 12:20:43;;;;;;;;;;;;;;;-144.99;90.42;52423.63;5073112;28;19928;-70
2022/11/07 12:23:16;;;;;;;;;;;;;;;-144.99;90.87;52407.31;5072213;28;19972;-67
2022/11/07 12:25:44;;;;;;;;;;;;;;;-144.99;90.12;52407.31;5067011;28;19936;-69
2022/11/07 12:28:27;;;;;;;;;;;;;;;-144.99;90.03;52382.88;5069631;28;20025;-69
2022/11/07 12:30:59;;;;;;;;;;;;;;;-144.99;90.48;52354.34;5068846;28;19960;-69
2022/11/07 12:33:33;;;;;;;;;;;;;;;-144.99;90.35;52423.63;5064389;28;19947;-71
2022/11/07 12:36:01;;;;;;;;;;;;;;;-144.99;90.06;52415.47;5062423;28;19979;-69
2022/11/07 12:38:46;;;;;;;;;;;;;;;-144.99;90.00;52427.72;5070204;28;19944;-70
2022/11/07 12:41:22;;;;;;;;;;;;;;;-144.99;90.32;52407.31;5071218;28;20049;-70